createdAt,value
2022-12-26T00:02:03.613Z,20.15
2022-12-26T00:04:53.516Z,23.27
2022-12-26T00:07:25.891Z,26.65
2022-12-26T00:10:08.754Z,24.00
2022-12-26T00:12:56.290Z,23.35
2022-12-26T00:16:13.080Z,27.80
2022-12-26T00:19:00.927Z,24.50
2022-12-26T00:21:43.674Z,26.17
2022-12-26T00:24:14.581Z,25.42
2022-12-26T00:26:45.524Z,25.58
2022-12-26T00:29:19.021Z,23.08
2022-12-26T00:31:49.560Z,23.60
2022-12-26T00:34:34.326Z,24.55
2022-12-26T00:37:21.955Z,21.77
2022-12-26T00:40:11.685Z,23.05
2022-12-26T00:42:59.339Z,29.52
2022-12-26T00:45:49.869Z,28.35
2022-12-26T00:48:30.981Z,23.98
2022-12-26T00:51:14.404Z,29.48
2022-12-26T00:54:03.172Z,26.83
2022-12-26T00:56:50.749Z,21.38
2022-12-26T00:59:39.144Z,18.52
2022-12-26T01:02:39.215Z,18.67
2022-12-26T01:05:29.736Z,17.55
2022-12-26T01:08:22.693Z,14.27
2022-12-26T01:10:54.862Z,14.13
2022-12-26T01:13:25.669Z,10.20
2022-12-26T01:15:56.604Z,9.90
2022-12-26T01:18:44.213Z,13.30
2022-12-26T01:21:31.897Z,11.05
2022-12-26T01:24:14.835Z,14.18
2022-12-26T01:26:47.863Z,14.18
2022-12-26T01:29:22.608Z,16.65
2022-12-26T01:31:51.206Z,12.68
2022-12-26T01:34:38.764Z,11.25
2022-12-26T01:37:14.171Z,15.70
2022-12-26T01:39:43.153Z,7.07
2022-12-26T01:42:25.817Z,6.10
2022-12-26T01:45:29.953Z,8.43
2022-12-26T01:48:08.162Z,7.70
2022-12-26T01:50:44.532Z,6.13
2022-12-26T01:53:22.439Z,5.20
2022-12-26T01:56:15.903Z,8.23
2022-12-26T01:58:47.337Z,3.65
2022-12-26T02:01:17.210Z,5.57
2022-12-26T02:04:25.952Z,6.95
2022-12-26T02:07:04.802Z,4.05
2022-12-26T02:09:52.388Z,3.72
2022-12-26T02:12:41.111Z,2.55
2022-12-26T02:15:29.200Z,6.45
2022-12-26T02:18:07.140Z,4.82
2022-12-26T02:20:44.135Z,4.03
2022-12-26T02:23:44.116Z,5.72
2022-12-26T02:26:23.887Z,4.47
2022-12-26T02:28:59.432Z,5.97
2022-12-26T02:31:30.987Z,5.18
2022-12-26T02:34:11.389Z,5.85
2022-12-26T02:36:58.015Z,7.88
2022-12-26T02:39:43.363Z,8.27
2022-12-26T02:42:23.017Z,10.07
2022-12-26T02:45:11.716Z,6.60
2022-12-26T02:47:42.839Z,12.05
2022-12-26T02:50:28.307Z,8.73
2022-12-26T02:53:26.653Z,8.68
2022-12-26T02:56:18.076Z,9.35
2022-12-26T02:59:13.913Z,9.85
2022-12-26T03:02:08.542Z,15.93
2022-12-26T03:05:07.338Z,11.95
2022-12-26T03:07:57.201Z,19.23
2022-12-26T03:10:54.129Z,13.70
2022-12-26T03:13:36.883Z,9.75
2022-12-26T03:16:26.525Z,12.38
2022-12-26T03:19:08.473Z,12.95
2022-12-26T03:21:56.790Z,12.57
2022-12-26T03:25:02.872Z,10.38
2022-12-26T03:27:46.491Z,14.43
2022-12-26T03:30:35.369Z,14.00
2022-12-26T03:33:40.603Z,14.70
2022-12-26T03:36:16.840Z,12.57
2022-12-26T03:39:21.702Z,18.65
2022-12-26T03:42:23.419Z,12.52
2022-12-26T03:45:21.557Z,14.40
2022-12-26T03:48:18.302Z,13.73
2022-12-26T03:51:07.814Z,14.55
2022-12-26T03:54:08.116Z,15.52
2022-12-26T03:56:54.109Z,13.68
2022-12-26T03:59:47.364Z,16.08
2022-12-26T04:02:49.812Z,15.63
2022-12-26T04:05:36.320Z,14.70
2022-12-26T04:08:25.453Z,10.85
2022-12-26T04:11:14.245Z,12.95
2022-12-26T04:14:09.917Z,13.40
2022-12-26T04:17:05.428Z,16.30
2022-12-26T04:19:52.975Z,15.80
2022-12-26T04:22:48.393Z,13.38
2022-12-26T04:25:50.252Z,14.10
2022-12-26T04:28:40.467Z,14.82
2022-12-26T04:31:36.015Z,13.77
2022-12-26T04:34:39.251Z,16.48
2022-12-26T04:37:35.478Z,16.08
2022-12-26T04:40:30.689Z,14.38
2022-12-26T04:43:46.754Z,13.88
2022-12-26T04:49:28.691Z,17.55
2022-12-26T04:51:57.719Z,11.93
2022-12-26T04:54:26.124Z,9.75
2022-12-26T04:56:56.798Z,10.93
2022-12-26T04:59:25.283Z,11.90
2022-12-26T05:02:11.508Z,11.23
2022-12-26T05:05:12.810Z,7.88
2022-12-26T05:08:13.198Z,10.73
2022-12-26T05:10:53.393Z,7.93
2022-12-26T05:13:23.422Z,8.25
2022-12-26T05:16:09.546Z,11.00
2022-12-26T05:19:13.555Z,10.48
2022-12-26T05:22:00.826Z,9.45
2022-12-26T05:24:53.605Z,7.38
2022-12-26T05:27:53.511Z,9.82
2022-12-26T05:30:30.597Z,10.10
2022-12-26T05:33:28.588Z,7.60
2022-12-26T05:36:12.514Z,9.52
2022-12-26T05:38:41.833Z,6.90
2022-12-26T05:41:10.376Z,9.02
2022-12-26T05:43:39.365Z,11.85
2022-12-26T05:46:08.220Z,10.50
2022-12-26T05:48:36.799Z,7.60
2022-12-26T05:51:05.904Z,13.68
2022-12-26T05:53:35.292Z,8.90
2022-12-26T05:56:12.105Z,18.05
2022-12-26T05:58:42.445Z,9.35
2022-12-26T06:01:13.574Z,11.40
2022-12-26T06:04:01.650Z,9.23
2022-12-26T06:06:43.047Z,9.10
2022-12-26T06:09:17.680Z,15.10
2022-12-26T06:11:48.985Z,9.50
2022-12-26T06:14:17.976Z,11.05
2022-12-26T06:16:48.905Z,12.38
2022-12-26T06:19:17.563Z,12.75
2022-12-26T06:21:46.189Z,14.88
2022-12-26T06:24:25.515Z,12.10
2022-12-26T06:26:54.676Z,11.18
2022-12-26T06:29:23.164Z,15.27
2022-12-26T06:31:51.872Z,13.73
2022-12-26T06:34:20.909Z,12.80
2022-12-26T06:36:49.298Z,13.18
2022-12-26T06:39:18.395Z,12.88
2022-12-26T06:41:49.868Z,14.95
2022-12-26T06:44:20.935Z,11.75
2022-12-26T06:46:50.464Z,12.05
2022-12-26T06:49:21.355Z,12.15
2022-12-26T06:51:50.535Z,14.18
2022-12-26T06:54:19.343Z,12.38
2022-12-26T06:56:49.619Z,13.48
2022-12-26T06:59:20.525Z,11.38
2022-12-26T07:01:50.120Z,13.77
2022-12-26T07:04:21.986Z,11.48
2022-12-26T07:06:50.510Z,14.48
2022-12-26T07:09:19.868Z,13.02
2022-12-26T07:11:49.765Z,14.07
2022-12-26T07:14:24.231Z,11.27
2022-12-26T07:16:52.919Z,13.15
2022-12-26T07:19:22.002Z,15.40
2022-12-26T07:21:50.535Z,17.00
2022-12-26T07:24:22.045Z,16.23
2022-12-26T07:26:51.841Z,16.52
2022-12-26T07:29:24.036Z,10.20
2022-12-26T07:31:52.359Z,13.95
2022-12-26T07:34:24.002Z,13.65
2022-12-26T07:36:57.067Z,11.55
2022-12-26T07:39:33.903Z,11.27
2022-12-26T07:42:10.401Z,14.45
2022-12-26T07:44:43.462Z,11.60
2022-12-26T07:47:12.924Z,13.35
2022-12-26T07:49:45.551Z,12.40
2022-12-26T07:52:31.222Z,6.82
2022-12-26T07:55:01.121Z,9.68
2022-12-26T07:57:48.701Z,6.72
2022-12-26T08:00:29.027Z,9.73
2022-12-26T08:03:16.880Z,6.22
2022-12-26T08:06:00.015Z,4.90
2022-12-26T08:08:51.629Z,5.57
2022-12-26T08:11:36.111Z,5.50
2022-12-26T08:14:05.948Z,4.28
2022-12-26T08:16:53.340Z,6.35
2022-12-26T08:19:36.969Z,3.13
2022-12-26T08:22:10.946Z,6.18
2022-12-26T08:24:41.331Z,3.95
2022-12-26T08:27:12.346Z,4.22
2022-12-26T08:29:41.371Z,2.83
2022-12-26T08:32:12.929Z,3.63
2022-12-26T08:34:41.462Z,4.78
2022-12-26T08:37:09.733Z,11.15
2022-12-26T08:39:39.300Z,8.10
2022-12-26T08:42:07.861Z,2.10
2022-12-26T08:44:49.991Z,3.80
2022-12-26T08:47:18.768Z,3.70
2022-12-26T08:49:47.814Z,3.22
2022-12-26T08:52:19.434Z,1.70
2022-12-26T08:54:50.356Z,1.85
2022-12-26T08:57:18.876Z,3.17
2022-12-26T08:59:47.176Z,6.57
2022-12-26T09:02:16.198Z,2.35
2022-12-26T09:04:44.984Z,2.38
2022-12-26T09:07:20.552Z,4.30
2022-12-26T09:10:02.017Z,22.77
2022-12-26T09:12:43.525Z,2.20
2022-12-26T09:15:21.079Z,16.67
2022-12-26T09:17:56.306Z,1.85
2022-12-26T09:20:30.447Z,1.63
2022-12-26T09:23:21.002Z,2.13
2022-12-26T09:25:53.809Z,1.70
2022-12-26T09:28:22.721Z,3.08
2022-12-26T09:30:51.054Z,2.15
2022-12-26T09:33:24.650Z,1.10
2022-12-26T09:35:59.817Z,2.17
2022-12-26T09:38:48.443Z,2.15
2022-12-26T09:41:33.339Z,4.30
2022-12-26T09:44:18.687Z,1.92
2022-12-26T09:47:02.265Z,5.88
2022-12-26T09:49:33.259Z,2.53
2022-12-26T09:52:03.130Z,4.05
2022-12-26T09:54:35.836Z,1.55
2022-12-26T09:57:14.820Z,1.30
2022-12-26T09:59:49.846Z,4.60
2022-12-26T10:02:24.130Z,1.60
2022-12-26T10:04:56.856Z,5.43
2022-12-26T10:07:26.244Z,4.30
2022-12-26T10:10:13.450Z,7.72
2022-12-26T10:12:46.346Z,2.22
2022-12-26T10:15:17.274Z,0.80
2022-12-26T10:17:55.706Z,6.63
2022-12-26T10:20:52.919Z,5.15
2022-12-26T10:23:29.831Z,2.95
2022-12-26T10:26:25.126Z,6.85
2022-12-26T10:28:56.162Z,5.88
2022-12-26T10:31:32.804Z,7.43
2022-12-26T10:34:23.710Z,3.35
2022-12-26T10:37:01.720Z,7.30
2022-12-26T10:39:56.579Z,3.15
2022-12-26T10:42:35.904Z,1.13
2022-12-26T10:45:26.787Z,4.22
2022-12-26T10:47:55.717Z,2.78
2022-12-26T10:50:28.879Z,4.90
2022-12-26T10:53:12.635Z,3.95
2022-12-26T10:55:46.099Z,1.83
2022-12-26T10:58:33.548Z,4.03
2022-12-26T11:01:35.768Z,2.75
2022-12-26T11:05:01.944Z,1.10
2022-12-26T11:07:19.869Z,2.28
2022-12-26T11:09:55.912Z,14.50
2022-12-26T11:12:28.169Z,4.30
2022-12-26T11:15:00.195Z,2.75
2022-12-26T11:17:35.061Z,1.05
2022-12-26T11:20:20.148Z,2.10
2022-12-26T11:22:48.920Z,2.30
2022-12-26T11:25:24.584Z,2.00
2022-12-26T11:27:56.969Z,3.22
2022-12-26T11:30:29.437Z,4.82
2022-12-26T11:33:14.801Z,1.15
2022-12-26T11:35:49.637Z,2.88
2022-12-26T11:38:37.577Z,2.38
2022-12-26T11:41:33.168Z,1.02
2022-12-26T11:44:12.213Z,6.57
2022-12-26T11:47:00.870Z,2.80
2022-12-26T11:49:34.942Z,3.88
2022-12-26T11:52:31.711Z,7.93
2022-12-26T11:55:27.889Z,2.17
2022-12-26T11:58:06.330Z,4.93
2022-12-26T12:00:36.888Z,3.13
2022-12-26T12:03:35.832Z,3.92
2022-12-26T12:06:04.118Z,3.78
2022-12-26T12:08:47.803Z,2.30
2022-12-26T12:11:26.560Z,2.55
2022-12-26T12:14:12.928Z,6.80
2022-12-26T12:16:49.514Z,2.38
2022-12-26T12:19:34.025Z,2.17
2022-12-26T12:22:20.341Z,2.90
2022-12-26T12:25:01.340Z,4.78
2022-12-26T12:27:39.306Z,3.50
2022-12-26T12:30:20.032Z,1.70
2022-12-26T12:32:56.855Z,5.95
2022-12-26T12:35:25.768Z,3.67
2022-12-26T12:38:02.993Z,5.60
2022-12-26T12:40:53.185Z,1.88
2022-12-26T12:43:36.720Z,4.95
2022-12-26T12:46:04.699Z,3.93
2022-12-26T12:48:43.593Z,0.98
2022-12-26T12:51:34.092Z,1.00
2022-12-26T12:54:07.857Z,0.73
2022-12-26T12:56:50.431Z,1.67
2022-12-26T12:59:20.679Z,2.08
2022-12-26T13:01:51.911Z,2.08
2022-12-26T13:04:30.542Z,1.50
2022-12-26T13:07:06.290Z,2.42
2022-12-26T13:09:45.331Z,0.90
2022-12-26T13:12:22.488Z,9.45
2022-12-26T13:14:53.530Z,14.55
2022-12-26T13:17:39.104Z,3.42
2022-12-26T13:20:16.125Z,2.63
2022-12-26T13:23:10.242Z,3.90
2022-12-26T13:25:49.611Z,3.75
2022-12-26T13:28:26.068Z,4.53
2022-12-26T13:33:37.000Z,8.77
2022-12-26T13:36:33.313Z,8.55
2022-12-26T13:39:13.655Z,3.10
2022-12-26T13:42:05.772Z,11.05
2022-12-26T13:47:04.039Z,6.03
2022-12-26T13:49:40.624Z,6.30
2022-12-26T13:52:11.862Z,5.22
2022-12-26T13:54:44.088Z,3.78
2022-12-26T13:57:31.371Z,5.82
2022-12-26T14:00:12.569Z,3.60
2022-12-26T14:03:17.987Z,4.78
2022-12-26T14:05:56.435Z,18.30
2022-12-26T14:08:43.279Z,4.00
2022-12-26T14:11:33.318Z,4.00
2022-12-26T14:14:04.091Z,10.05
2022-12-26T14:16:39.760Z,3.30
2022-12-26T14:19:16.365Z,5.63
2022-12-26T14:22:03.201Z,10.82
2022-12-26T14:24:34.721Z,5.20
2022-12-26T14:29:42.405Z,7.78
2022-12-26T14:32:20.070Z,4.30
2022-12-26T14:35:09.023Z,11.73
2022-12-26T14:37:52.424Z,10.35
2022-12-26T14:40:26.755Z,8.82
2022-12-26T14:43:12.548Z,6.80
2022-12-26T14:45:45.001Z,7.68
2022-12-26T14:48:16.342Z,9.80
2022-12-26T14:50:48.244Z,9.75
2022-12-26T14:53:27.447Z,12.25
2022-12-26T14:55:55.552Z,13.07
2022-12-26T14:58:30.542Z,10.95
2022-12-26T15:01:10.549Z,9.80
2022-12-26T15:03:58.536Z,7.90
2022-12-26T15:06:48.551Z,9.63
2022-12-26T15:09:21.900Z,8.05
2022-12-26T15:11:55.092Z,7.32
2022-12-26T15:14:41.499Z,17.52
2022-12-26T15:17:18.701Z,8.05
2022-12-26T15:20:02.346Z,18.20
2022-12-26T15:22:43.508Z,14.20
2022-12-26T15:25:30.239Z,10.55
2022-12-26T15:27:58.300Z,7.65
2022-12-26T15:30:50.830Z,12.30
2022-12-26T15:33:23.928Z,11.50
2022-12-26T15:35:51.909Z,11.30
2022-12-26T15:38:38.862Z,5.32
2022-12-26T15:41:26.609Z,7.57
2022-12-26T15:44:03.419Z,3.97
2022-12-26T15:46:44.047Z,8.00
2022-12-26T15:49:12.145Z,5.37
2022-12-26T15:51:43.395Z,8.13
2022-12-26T15:54:38.745Z,3.28
2022-12-26T15:57:16.200Z,3.13
2022-12-26T15:59:47.736Z,3.47
2022-12-26T16:02:31.203Z,3.97
2022-12-26T16:05:11.675Z,4.63
2022-12-26T16:07:59.793Z,10.25
2022-12-26T16:10:35.584Z,4.00
2022-12-26T16:13:17.785Z,8.13
2022-12-26T16:15:49.786Z,10.73
2022-12-26T16:18:20.297Z,12.65
2022-12-26T16:21:06.969Z,4.57
2022-12-26T16:23:37.911Z,3.88
2022-12-26T16:26:08.918Z,7.20
2022-12-26T16:28:40.267Z,7.32
2022-12-26T16:31:09.879Z,4.78
2022-12-26T16:33:58.635Z,8.30
2022-12-26T16:36:46.324Z,5.20
2022-12-26T16:39:23.615Z,10.23
2022-12-26T16:42:02.849Z,7.53
2022-12-26T16:44:51.054Z,17.08
2022-12-26T16:47:23.735Z,10.38
2022-12-26T16:50:06.276Z,3.45
2022-12-26T16:52:46.754Z,10.52
2022-12-26T16:55:25.198Z,4.57
2022-12-26T16:57:56.337Z,5.63
2022-12-26T17:00:25.546Z,3.40
2022-12-26T17:03:05.580Z,5.10
2022-12-26T17:05:38.060Z,5.13
2022-12-26T17:08:13.520Z,4.82
2022-12-26T17:10:47.294Z,3.08
2022-12-26T17:15:53.012Z,5.55
2022-12-26T17:18:29.764Z,13.25
2022-12-26T17:21:17.109Z,3.47
2022-12-26T17:23:46.443Z,2.80
2022-12-26T17:26:24.312Z,3.47
2022-12-26T17:28:52.635Z,5.85
2022-12-26T17:31:42.971Z,8.73
2022-12-26T17:34:16.412Z,4.22
2022-12-26T17:37:18.332Z,5.30
2022-12-26T17:39:45.335Z,2.95
2022-12-26T17:42:40.848Z,3.65
2022-12-26T17:45:27.533Z,10.70
2022-12-26T17:47:59.818Z,7.18
2022-12-26T17:50:33.561Z,6.00
2022-12-26T17:53:06.411Z,5.90
2022-12-26T17:55:35.530Z,5.60
2022-12-26T17:58:06.510Z,4.78
2022-12-26T18:00:35.198Z,3.83
2022-12-26T18:03:22.086Z,2.92
2022-12-26T18:05:56.411Z,3.50
2022-12-26T18:08:25.259Z,2.20
2022-12-26T18:10:54.141Z,3.72
2022-12-26T18:13:23.088Z,4.10
2022-12-26T18:15:56.162Z,3.53
2022-12-26T18:18:32.654Z,4.57
2022-12-26T18:21:21.425Z,3.38
2022-12-26T18:23:57.442Z,11.65
2022-12-26T18:26:31.205Z,8.30
2022-12-26T18:29:13.017Z,7.47
2022-12-26T18:31:42.001Z,6.03
2022-12-26T18:34:17.839Z,5.55
2022-12-26T18:37:05.464Z,3.83
2022-12-26T18:39:43.111Z,15.70
2022-12-26T18:42:14.927Z,10.93
2022-12-26T18:44:44.334Z,10.90
2022-12-26T18:47:17.317Z,3.65
2022-12-26T18:49:46.301Z,12.45
2022-12-26T18:52:21.099Z,5.55
2022-12-26T18:55:01.072Z,6.75
2022-12-26T18:57:51.379Z,7.95
2022-12-26T19:00:39.122Z,6.28
2022-12-26T19:03:26.940Z,5.57
2022-12-26T19:05:56.885Z,5.63
2022-12-26T19:08:27.334Z,9.75
2022-12-26T19:10:55.819Z,9.15
2022-12-26T19:13:29.600Z,11.27
2022-12-26T19:15:59.260Z,5.05
2022-12-26T19:18:30.198Z,6.97
2022-12-26T19:20:58.787Z,10.85
2022-12-26T19:23:28.284Z,4.15
2022-12-26T19:25:57.313Z,4.82
2022-12-26T19:28:28.539Z,5.78
2022-12-26T19:30:57.485Z,13.30
2022-12-26T19:33:29.395Z,7.13
2022-12-26T19:36:01.456Z,9.73
2022-12-26T19:38:34.175Z,5.38
2022-12-26T19:41:07.301Z,3.17
2022-12-26T19:43:44.646Z,5.25
2022-12-26T19:46:20.362Z,8.43
2022-12-26T19:49:02.885Z,7.22
2022-12-26T19:51:42.268Z,12.05
2022-12-26T19:54:15.166Z,15.65
2022-12-26T19:56:44.846Z,7.20
2022-12-26T19:59:16.543Z,12.05
2022-12-26T20:01:44.931Z,5.25
2022-12-26T20:04:34.789Z,7.05
2022-12-26T20:07:19.588Z,11.50
2022-12-26T20:10:02.030Z,7.90
2022-12-26T20:12:51.304Z,20.38
2022-12-26T20:15:22.150Z,4.68
2022-12-26T20:17:52.665Z,5.47
2022-12-26T20:20:23.163Z,7.20
2022-12-26T20:22:53.509Z,14.45
2022-12-26T20:25:24.924Z,23.15
2022-12-26T20:27:53.925Z,24.30
2022-12-26T20:30:22.219Z,40.95
2022-12-26T20:33:07.619Z,20.92
2022-12-26T20:35:46.078Z,48.45
2022-12-26T20:38:16.237Z,102.93
2022-12-26T20:40:49.935Z,47.50
2022-12-26T20:43:23.178Z,10.55
2022-12-26T20:46:08.213Z,22.35
2022-12-26T20:48:55.923Z,15.20
2022-12-26T20:51:42.157Z,18.50
2022-12-26T20:54:24.801Z,9.82
2022-12-26T20:56:58.034Z,13.18
2022-12-26T20:59:26.365Z,15.30
2022-12-26T21:01:55.182Z,10.73
2022-12-26T21:04:24.156Z,9.38
2022-12-26T21:07:06.544Z,17.95
2022-12-26T21:09:46.693Z,24.63
2022-12-26T21:12:20.774Z,18.35
2022-12-26T21:17:44.945Z,9.10
2022-12-26T21:20:22.982Z,6.93
2022-12-26T21:23:06.365Z,14.68
2022-12-26T21:25:44.999Z,9.57
2022-12-26T21:28:13.889Z,9.93
2022-12-26T21:30:47.135Z,10.50
2022-12-26T21:33:19.693Z,8.75
2022-12-26T21:35:50.883Z,14.75
2022-12-26T21:38:22.344Z,10.77
2022-12-26T21:40:53.661Z,11.43
2022-12-26T21:43:30.185Z,17.90
2022-12-26T21:46:01.696Z,10.43
2022-12-26T21:48:46.953Z,9.50
2022-12-26T21:51:27.019Z,20.70
2022-12-26T21:54:17.522Z,7.45
2022-12-26T21:59:57.613Z,9.32
2022-12-26T22:02:44.977Z,11.00
2022-12-26T22:05:13.846Z,9.63
2022-12-26T22:07:45.496Z,8.93
2022-12-26T22:10:34.530Z,13.35
2022-12-26T22:13:08.556Z,9.68
2022-12-26T22:16:00.547Z,10.02
2022-12-26T22:18:36.281Z,10.93
2022-12-26T22:21:15.337Z,5.15
2022-12-26T22:23:55.796Z,6.57
2022-12-26T22:26:33.791Z,7.07
2022-12-26T22:29:14.209Z,10.32
2022-12-26T22:31:53.279Z,7.18
2022-12-26T22:34:37.971Z,9.00
2022-12-26T22:37:09.603Z,6.28
2022-12-26T22:39:56.146Z,6.38
2022-12-26T22:42:42.491Z,6.97
2022-12-26T22:45:17.901Z,5.85
2022-12-26T22:48:05.584Z,5.70
2022-12-26T22:50:43.015Z,10.20
2022-12-26T22:53:30.646Z,15.30
2022-12-26T22:56:06.823Z,3.72
2022-12-26T22:58:43.926Z,11.55
2022-12-26T23:01:18.834Z,5.95
2022-12-26T23:03:54.682Z,4.63
2022-12-26T23:06:45.416Z,9.82
2022-12-26T23:09:33.010Z,7.90
2022-12-26T23:12:27.950Z,14.20
2022-12-26T23:15:18.743Z,10.38
2022-12-26T23:18:32.735Z,5.40
2022-12-26T23:21:42.186Z,10.18
2022-12-26T23:24:21.289Z,6.07
2022-12-26T23:26:53.333Z,6.57
2022-12-26T23:29:45.624Z,9.23
2022-12-26T23:32:30.510Z,11.23
2022-12-26T23:35:00.487Z,9.00
2022-12-26T23:37:29.668Z,16.98
2022-12-26T23:40:00.903Z,6.13
2022-12-26T23:42:34.010Z,5.90
2022-12-26T23:45:02.911Z,9.32
2022-12-26T23:47:36.866Z,8.75
2022-12-26T23:52:45.476Z,8.23
2022-12-26T23:55:14.859Z,4.90
2022-12-26T23:58:01.084Z,7.43
